Abu Dhabi, UAE

4:04 PM GST on November 28, 2014 (GMT +0400)
Abu Dhabi International | Change Station
CLOSE
Current Station
Airport
Location: Abu Dhabi,
Elevation: 89 ft
Nearby Weather Stations

Elev 89 ft 24.43 °N, 54.65 °E | Updated 4 minutes ago

Clear
Clear
81 °F
Feels Like 83 °F
N
14
Wind Variable Wind from NW

Today
High -- | Low -- °F
--% Chance of Precip.
Yesterday
High -- | Low -- °F
Precip. -- in
6:45 AM 5:32 PM
Waxing Crescent, 39% visible
Pressure 29.92 in
Visibility -9999.0 miles
Clouds
Heat Index 83 °F
Dew Point 66 °F
Humidity 61%
Rainfall 0.00 in
Snow Depth Not available.
UV Not available.
Pollen Not available.
Air Quality Not available.
Flu Activity Not available.
METAR OMAA 281200Z 32012KT CAVOK 27/19 Q1013 A2993 NOSIG

More Conditions Fewer Conditions

Pressure 29.92 in
Visibility -9999.0 miles
Clouds
Heat Index 83 °F
Dew Point 66 °F
Humidity 61%
Rainfall 0.00 in
Snow Depth Not available.
UV Not available.
Pollen Not available.
Air Quality Not available.
Flu Activity Not available.
METAR OMAA 281200Z 32012KT CAVOK 27/19 Q1013 A2993 NOSIG

More Conditions Fewer Conditions

10-Day Weather Forecast

Almanac

Astronomy

Nov. 28, 2014 Rise Set
Actual Time
Civil Twilight
Nautical Twilight
Astronomical Twilight
Moon
Length of Visible Light
Length of Day
Tomorrow will be .
, % of the Moon is Illuminated

Today's Extremes

Country Highs Country Lows

Community

WunderPhotos

Upload Photos

1,774,198 photos uploaded!

WunderBlogs® & News

Nearby

Air Quality

  Air Quality AQ Index Pollutant
Not available.

Snow Depth

Station Depth Elevation

Earthquake Activity

City Distance Mag. Time & Date
Minimum magnitude displayed is 2.5.

Coastal Water Temperatures

Place Temperature

Nearby Weather Stations